createdAt,value
2019-03-28T00:00:11.418Z,10.82
2019-03-28T00:01:11.696Z,10.81
2019-03-28T00:02:11.833Z,10.82
2019-03-28T00:03:11.998Z,10.75
2019-03-28T00:04:11.498Z,10.89
2019-03-28T00:05:12.249Z,10.81
2019-03-28T00:06:11.796Z,10.82
2019-03-28T00:07:11.813Z,10.86
2019-03-28T00:08:14.801Z,10.92
2019-03-28T00:09:12.535Z,10.96
2019-03-28T00:10:12.541Z,10.84
2019-03-28T00:11:11.625Z,10.76
2019-03-28T00:12:11.927Z,10.92
2019-03-28T00:13:11.923Z,10.78
2019-03-28T00:14:11.939Z,10.81
2019-03-28T00:15:12.855Z,10.79
2019-03-28T00:16:12.248Z,10.76
2019-03-28T00:17:12.361Z,10.84
2019-03-28T00:18:12.017Z,10.76
2019-03-28T00:19:12.297Z,10.81
2019-03-28T00:20:12.312Z,10.78
2019-03-28T00:21:12.072Z,10.79
2019-03-28T00:22:12.093Z,10.74
2019-03-28T00:23:12.114Z,10.82
2019-03-28T00:24:12.127Z,10.76
2019-03-28T00:25:12.641Z,10.78
2019-03-28T00:26:12.433Z,10.76
2019-03-28T00:27:11.919Z,10.79
2019-03-28T00:28:12.490Z,10.81
2019-03-28T00:29:12.230Z,10.72
2019-03-28T00:30:12.243Z,10.76
2019-03-28T00:31:12.260Z,10.81
2019-03-28T00:32:12.282Z,10.79
2019-03-28T00:33:12.562Z,10.74
2019-03-28T00:34:12.681Z,10.76
2019-03-28T00:35:12.337Z,10.78
2019-03-28T00:36:12.364Z,10.74
2019-03-28T00:37:13.478Z,10.78
2019-03-28T00:38:12.390Z,10.79
2019-03-28T00:39:12.674Z,10.86
2019-03-28T00:40:12.689Z,10.78
2019-03-28T00:41:12.448Z,10.79
2019-03-28T00:42:12.816Z,10.82
2019-03-28T00:43:12.218Z,10.72
2019-03-28T00:44:12.501Z,10.79
2019-03-28T00:45:12.780Z,10.71
2019-03-28T00:46:12.803Z,10.74
2019-03-28T00:47:13.281Z,10.76
2019-03-28T00:48:12.581Z,10.78
2019-03-28T00:49:12.334Z,10.71
2019-03-28T00:50:12.986Z,10.86
2019-03-28T00:51:12.640Z,10.79
2019-03-28T00:52:12.913Z,10.72
2019-03-28T00:53:12.417Z,10.71
2019-03-28T00:54:12.702Z,10.72
2019-03-28T00:55:12.550Z,10.72
2019-03-28T00:56:12.991Z,10.84
2019-03-28T00:57:12.752Z,10.75
2019-03-28T00:58:12.762Z,10.71
2019-03-28T00:59:12.522Z,10.74
2019-03-28T01:00:12.802Z,10.74
2019-03-28T01:01:12.823Z,10.75
2019-03-28T01:02:13.099Z,10.76
2019-03-28T01:03:13.376Z,10.78
2019-03-28T01:04:13.140Z,10.71
2019-03-28T01:05:13.157Z,10.69
2019-03-28T01:06:13.180Z,10.79
2019-03-28T01:07:12.926Z,10.76
2019-03-28T01:08:12.949Z,10.72
2019-03-28T01:09:12.712Z,10.68
2019-03-28T01:10:12.990Z,10.72
2019-03-28T01:11:13.273Z,10.72
2019-03-28T01:12:13.036Z,10.72
2019-03-28T01:13:13.051Z,10.74
2019-03-28T01:14:13.332Z,10.68
2019-03-28T01:15:13.080Z,10.74
2019-03-28T01:16:13.099Z,10.75
2019-03-28T01:17:13.126Z,10.74
2019-03-28T01:18:13.136Z,10.78
2019-03-28T01:19:13.157Z,10.74
2019-03-28T01:20:13.437Z,10.68
2019-03-28T01:21:13.195Z,10.68
2019-03-28T01:22:13.210Z,10.78
2019-03-28T01:23:13.489Z,10.74
2019-03-28T01:24:13.676Z,10.75
2019-03-28T01:25:13.533Z,10.74
2019-03-28T01:26:13.040Z,10.61
2019-03-28T01:27:13.303Z,10.69
2019-03-28T01:28:13.059Z,10.64
2019-03-28T01:29:13.346Z,10.69
2019-03-28T01:30:13.621Z,10.71
2019-03-28T01:31:13.378Z,10.67
2019-03-28T01:32:13.136Z,10.68
2019-03-28T01:33:13.153Z,10.6
2019-03-28T01:34:13.696Z,10.64
2019-03-28T01:35:13.188Z,10.61
2019-03-28T01:36:13.734Z,10.64
2019-03-28T01:37:13.498Z,10.64
2019-03-28T01:38:13.511Z,10.68
2019-03-28T01:39:13.268Z,10.72
2019-03-28T01:40:13.280Z,10.69
2019-03-28T01:41:13.564Z,10.6
2019-03-28T01:42:13.584Z,10.69
2019-03-28T01:43:13.603Z,10.69
2019-03-28T01:44:13.620Z,10.63
2019-03-28T01:45:13.640Z,10.59
2019-03-28T01:46:13.658Z,10.63
2019-03-28T01:47:13.676Z,10.68
2019-03-28T01:48:13.697Z,10.61
2019-03-28T01:49:13.717Z,10.71
2019-03-28T01:50:13.995Z,10.63
2019-03-28T01:51:13.506Z,10.67
2019-03-28T01:52:13.786Z,10.64
2019-03-28T01:53:14.757Z,10.61
2019-03-28T01:54:13.545Z,10.61
2019-03-28T01:55:14.090Z,10.67
2019-03-28T01:56:13.851Z,10.59
2019-03-28T01:57:16.157Z,10.6
2019-03-28T01:58:13.879Z,10.64
2019-03-28T01:59:14.172Z,10.59
2019-03-28T02:00:14.608Z,10.63
2019-03-28T02:01:13.939Z,10.59
2019-03-28T02:02:14.220Z,10.72
2019-03-28T02:03:13.712Z,10.59
2019-03-28T02:04:14.000Z,10.63
2019-03-28T02:05:13.746Z,10.69
2019-03-28T02:06:13.766Z,10.59
2019-03-28T02:07:14.048Z,10.67
2019-03-28T02:08:14.072Z,10.63
2019-03-28T02:09:13.824Z,10.59
2019-03-28T02:10:14.363Z,10.63
2019-03-28T02:11:13.863Z,10.57
2019-03-28T02:12:14.409Z,10.6
2019-03-28T02:13:14.161Z,10.59
2019-03-28T02:14:14.865Z,10.57
2019-03-28T02:15:14.206Z,10.57
2019-03-28T02:16:13.954Z,10.49
2019-03-28T02:17:14.725Z,10.6
2019-03-28T02:18:14.252Z,10.57
2019-03-28T02:19:14.271Z,10.56
2019-03-28T02:20:14.721Z,10.54
2019-03-28T02:21:14.613Z,10.51
2019-03-28T02:22:14.330Z,10.49
2019-03-28T02:23:15.028Z,10.63
2019-03-28T02:24:14.365Z,10.53
2019-03-28T02:25:14.129Z,10.6
2019-03-28T02:26:14.664Z,10.51
2019-03-28T02:27:26.100Z,10.6
2019-03-28T02:28:14.716Z,10.56
2019-03-28T02:29:14.725Z,10.48
2019-03-28T02:30:14.227Z,10.59
2019-03-28T02:31:14.525Z,10.54
2019-03-28T02:32:14.258Z,10.54
2019-03-28T02:33:14.535Z,10.54
2019-03-28T02:34:14.314Z,10.56
2019-03-28T02:35:14.579Z,10.48
2019-03-28T02:36:14.412Z,10.49
2019-03-28T02:37:14.887Z,10.48
2019-03-28T02:38:14.909Z,10.54
2019-03-28T02:39:14.645Z,10.49
2019-03-28T02:40:14.676Z,10.56
2019-03-28T02:41:14.706Z,10.48
2019-03-28T02:42:14.447Z,10.57
2019-03-28T02:43:14.847Z,10.49
2019-03-28T02:44:15.144Z,10.53
2019-03-28T02:45:14.766Z,10.51
2019-03-28T02:46:14.520Z,10.51
2019-03-28T02:47:15.036Z,10.48
2019-03-28T02:48:14.822Z,10.51
2019-03-28T02:49:14.580Z,10.46
2019-03-28T02:50:16.022Z,10.51
2019-03-28T02:51:15.141Z,10.49
2019-03-28T02:52:14.917Z,10.41
2019-03-28T02:53:16.150Z,10.53
2019-03-28T02:54:14.923Z,10.4
2019-03-28T02:55:14.690Z,10.49
2019-03-28T02:56:15.941Z,10.48
2019-03-28T02:57:14.722Z,10.51
2019-03-28T02:58:15.727Z,10.46
2019-03-28T02:59:14.763Z,10.51
2019-03-28T03:00:15.056Z,10.51
2019-03-28T03:01:15.322Z,10.46
2019-03-28T03:02:15.081Z,10.53
2019-03-28T03:03:15.093Z,10.49
2019-03-28T03:04:15.137Z,10.49
2019-03-28T03:05:15.450Z,10.48
2019-03-28T03:06:14.889Z,10.54
2019-03-28T03:07:15.176Z,10.51
2019-03-28T03:08:15.192Z,10.46
2019-03-28T03:09:15.472Z,10.56
2019-03-28T03:10:14.997Z,10.42
2019-03-28T03:11:15.521Z,10.42
2019-03-28T03:12:15.527Z,10.49
2019-03-28T03:13:15.026Z,10.44
2019-03-28T03:14:16.617Z,10.42
2019-03-28T03:15:15.591Z,10.42
2019-03-28T03:16:15.597Z,10.4
2019-03-28T03:17:15.871Z,10.51
2019-03-28T03:18:15.373Z,10.46
2019-03-28T03:19:15.397Z,10.42
2019-03-28T03:20:15.403Z,10.38
2019-03-28T03:21:15.168Z,10.44
2019-03-28T03:22:15.706Z,10.44
2019-03-28T03:23:15.206Z,10.42
2019-03-28T03:24:15.491Z,10.4
2019-03-28T03:25:15.763Z,10.4
2019-03-28T03:26:15.784Z,10.34
2019-03-28T03:27:15.276Z,10.46
2019-03-28T03:28:15.296Z,10.46
2019-03-28T03:29:15.842Z,10.56
2019-03-28T03:30:15.887Z,10.42
2019-03-28T03:31:20.827Z,10.44
2019-03-28T03:32:15.370Z,10.51
2019-03-28T03:33:15.411Z,10.51
2019-03-28T03:34:15.451Z,10.41
2019-03-28T03:35:15.961Z,10.44
2019-03-28T03:36:15.711Z,10.41
2019-03-28T03:37:15.984Z,10.44
2019-03-28T03:38:15.740Z,10.46
2019-03-28T03:39:16.043Z,10.46
2019-03-28T03:40:15.773Z,10.44
2019-03-28T03:41:16.061Z,10.41
2019-03-28T03:42:15.553Z,10.44
2019-03-28T03:43:16.093Z,10.42
2019-03-28T03:44:16.149Z,10.42
2019-03-28T03:45:15.618Z,10.4
2019-03-28T03:46:15.625Z,10.38
2019-03-28T03:47:15.909Z,10.46
2019-03-28T03:48:16.862Z,10.37
2019-03-28T03:49:16.361Z,10.41
2019-03-28T03:50:15.968Z,10.46
2019-03-28T03:51:16.845Z,10.38
2019-03-28T03:52:16.006Z,10.44
2019-03-28T03:53:16.018Z,10.42
2019-03-28T03:54:16.339Z,10.38
2019-03-28T03:55:15.802Z,10.42
2019-03-28T03:56:16.350Z,10.35
2019-03-28T03:57:16.354Z,10.38
2019-03-28T03:58:21.696Z,10.44
2019-03-28T03:59:16.690Z,10.4
2019-03-28T04:00:16.412Z,10.48
2019-03-28T04:01:16.175Z,10.38
2019-03-28T04:02:15.921Z,10.44
2019-03-28T04:03:16.222Z,10.48
2019-03-28T04:04:16.236Z,10.38
2019-03-28T04:05:17.560Z,10.34
2019-03-28T04:06:16.255Z,10.41
2019-03-28T04:07:16.284Z,10.42
2019-03-28T04:08:16.299Z,10.33
2019-03-28T04:09:16.579Z,10.41
2019-03-28T04:10:16.337Z,10.38
2019-03-28T04:11:16.362Z,10.4
2019-03-28T04:12:16.650Z,10.38
2019-03-28T04:13:16.654Z,10.38
2019-03-28T04:14:16.147Z,10.4
2019-03-28T04:15:16.173Z,10.37
2019-03-28T04:16:16.449Z,10.42
2019-03-28T04:17:16.460Z,10.4
2019-03-28T04:18:16.568Z,10.38
2019-03-28T04:19:16.248Z,10.37
2019-03-28T04:20:16.783Z,10.4
2019-03-28T04:21:17.581Z,10.28
2019-03-28T04:22:16.306Z,10.28
2019-03-28T04:23:16.873Z,10.38
2019-03-28T04:24:16.590Z,10.38
2019-03-28T04:25:16.618Z,10.41
2019-03-28T04:26:16.369Z,10.46
2019-03-28T04:27:16.778Z,10.38
2019-03-28T04:28:32.883Z,10.37
2019-03-28T04:29:16.945Z,10.35
2019-03-28T04:30:16.960Z,10.34
2019-03-28T04:31:16.750Z,10.38
2019-03-28T04:32:17.007Z,10.4
2019-03-28T04:33:17.030Z,10.38
2019-03-28T04:34:16.783Z,10.37
2019-03-28T04:35:16.796Z,10.4
2019-03-28T04:36:17.210Z,10.37
2019-03-28T04:37:16.844Z,10.33
2019-03-28T04:38:17.118Z,10.38
2019-03-28T04:39:16.872Z,10.3
2019-03-28T04:40:16.633Z,10.34
2019-03-28T04:41:16.905Z,10.4
2019-03-28T04:42:17.188Z,10.38
2019-03-28T04:43:16.704Z,10.4
2019-03-28T04:44:16.700Z,10.33
2019-03-28T04:45:16.986Z,10.3
2019-03-28T04:46:16.997Z,10.33
2019-03-28T04:47:16.749Z,10.34
2019-03-28T04:48:17.039Z,10.26
2019-03-28T04:49:20.841Z,10.37
2019-03-28T04:50:17.068Z,10.37
2019-03-28T04:51:17.441Z,10.37
2019-03-28T04:52:16.874Z,10.26
2019-03-28T04:53:16.863Z,10.31
2019-03-28T04:54:16.885Z,10.38
2019-03-28T04:55:17.166Z,10.33
2019-03-28T04:56:17.246Z,10.26
2019-03-28T04:57:17.206Z,10.41
2019-03-28T04:58:17.219Z,10.25
2019-03-28T04:59:17.927Z,10.31
2019-03-28T05:00:17.265Z,10.38
2019-03-28T05:01:17.277Z,10.33
2019-03-28T05:02:17.294Z,10.35
2019-03-28T05:03:17.317Z,10.34
2019-03-28T05:04:17.516Z,10.28
2019-03-28T05:05:17.109Z,10.41
2019-03-28T05:06:17.626Z,10.34
2019-03-28T05:07:17.385Z,10.35
2019-03-28T05:08:17.140Z,10.28
2019-03-28T05:09:17.428Z,10.31
2019-03-28T05:10:17.638Z,10.35
2019-03-28T05:11:17.468Z,10.25
2019-03-28T05:12:17.218Z,10.35
2019-03-28T05:13:17.763Z,10.31
2019-03-28T05:14:17.778Z,10.25
2019-03-28T05:15:20.189Z,10.35
2019-03-28T05:16:17.286Z,10.28
2019-03-28T05:17:17.570Z,10.33
2019-03-28T05:18:17.858Z,10.28
2019-03-28T05:19:17.606Z,10.28
2019-03-28T05:20:18.294Z,10.28
2019-03-28T05:21:17.643Z,10.31
2019-03-28T05:22:17.669Z,10.31
2019-03-28T05:23:17.420Z,10.25
2019-03-28T05:24:17.435Z,10.33
2019-03-28T05:25:17.982Z,10.26
2019-03-28T05:26:17.806Z,10.3
2019-03-28T05:27:18.961Z,10.3
2019-03-28T05:28:17.513Z,10.35
2019-03-28T05:29:18.057Z,10.35
2019-03-28T05:30:17.824Z,10.37
2019-03-28T05:31:17.832Z,10.26
2019-03-28T05:32:17.592Z,10.26
2019-03-28T05:33:18.129Z,10.2
2019-03-28T05:34:17.919Z,10.31
2019-03-28T05:35:17.907Z,10.31
2019-03-28T05:36:18.439Z,10.31
2019-03-28T05:37:17.684Z,10.3
2019-03-28T05:38:17.962Z,10.33
2019-03-28T05:39:17.980Z,10.3
2019-03-28T05:40:17.736Z,10.31
2019-03-28T05:41:19.916Z,10.26
2019-03-28T05:42:18.034Z,10.31
2019-03-28T05:43:18.311Z,10.31
2019-03-28T05:44:17.811Z,10.33
2019-03-28T05:45:18.091Z,10.3
2019-03-28T05:46:18.265Z,10.34
2019-03-28T05:47:17.860Z,10.31
2019-03-28T05:48:18.143Z,10.33
2019-03-28T05:49:18.167Z,10.22
2019-03-28T05:50:18.183Z,10.28
2019-03-28T05:51:18.461Z,10.25
2019-03-28T05:52:18.478Z,10.28
2019-03-28T05:53:18.236Z,10.34
2019-03-28T05:54:18.526Z,10.28
2019-03-28T05:55:18.275Z,10.33
2019-03-28T05:56:18.030Z,10.31
2019-03-28T05:57:18.050Z,10.26
2019-03-28T05:58:18.330Z,10.3
2019-03-28T05:59:19.310Z,10.34
2019-03-28T06:00:18.366Z,10.35
2019-03-28T06:01:18.124Z,10.25
2019-03-28T06:02:18.413Z,10.3
2019-03-28T06:03:18.551Z,10.33
2019-03-28T06:04:18.437Z,10.28
2019-03-28T06:05:18.196Z,10.34
2019-03-28T06:06:18.744Z,10.34
2019-03-28T06:07:18.756Z,10.31
2019-03-28T06:08:18.256Z,10.33
2019-03-28T06:09:19.267Z,10.34
2019-03-28T06:10:20.764Z,10.3
2019-03-28T06:11:18.566Z,10.26
2019-03-28T06:12:21.126Z,10.35
2019-03-28T06:13:18.870Z,10.4
2019-03-28T06:14:18.657Z,10.26
2019-03-28T06:15:18.385Z,10.34
2019-03-28T06:16:18.924Z,10.38
2019-03-28T06:17:18.685Z,10.33
2019-03-28T06:18:18.491Z,10.44
2019-03-28T06:19:18.456Z,10.48
2019-03-28T06:20:18.738Z,10.41
2019-03-28T06:21:18.487Z,10.35
2019-03-28T06:22:18.512Z,10.42
2019-03-28T06:23:18.807Z,10.42
2019-03-28T06:24:18.553Z,10.44
2019-03-28T06:25:19.099Z,10.42
2019-03-28T06:26:18.597Z,10.44
2019-03-28T06:27:18.867Z,10.46
2019-03-28T06:28:18.887Z,10.46
2019-03-28T06:29:28.341Z,10.44
2019-03-28T06:30:18.921Z,10.48
2019-03-28T06:31:18.679Z,10.46
2019-03-28T06:32:18.694Z,10.48
2019-03-28T06:33:18.977Z,10.44
2019-03-28T06:34:18.993Z,10.4
2019-03-28T06:35:21.787Z,10.35
2019-03-28T06:36:19.442Z,10.46
2019-03-28T06:37:18.785Z,10.46
2019-03-28T06:38:19.069Z,10.56
2019-03-28T06:39:19.352Z,10.53
2019-03-28T06:40:18.844Z,10.49
2019-03-28T06:41:19.128Z,10.53
2019-03-28T06:42:19.404Z,10.48
2019-03-28T06:43:18.906Z,10.51
2019-03-28T06:44:19.444Z,10.56
2019-03-28T06:45:19.467Z,10.54
2019-03-28T06:46:18.954Z,10.57
2019-03-28T06:47:21.030Z,10.49
2019-03-28T06:48:19.255Z,10.53
2019-03-28T06:49:19.273Z,10.57
2019-03-28T06:50:19.558Z,10.57
2019-03-28T06:51:19.042Z,10.53
2019-03-28T06:52:19.327Z,10.51
2019-03-28T06:53:19.356Z,10.57
2019-03-28T06:54:19.365Z,10.68
2019-03-28T06:55:19.387Z,10.56
2019-03-28T06:56:19.989Z,10.67
2019-03-28T06:57:21.223Z,10.68
2019-03-28T06:58:19.186Z,10.64
2019-03-28T06:59:19.460Z,10.56
2019-03-28T07:00:19.227Z,10.59
2019-03-28T07:01:19.500Z,10.64
2019-03-28T07:02:21.861Z,10.59
2019-03-28T07:03:19.533Z,10.64
2019-03-28T07:04:19.292Z,10.63
2019-03-28T07:05:19.307Z,10.69
2019-03-28T07:06:19.332Z,10.68
2019-03-28T07:07:23.011Z,10.61
2019-03-28T07:08:19.370Z,10.63
2019-03-28T07:09:20.788Z,10.67
2019-03-28T07:10:19.414Z,10.69
2019-03-28T07:11:19.429Z,10.76
2019-03-28T07:12:19.442Z,10.67
2019-03-28T07:13:19.987Z,10.68
2019-03-28T07:14:19.482Z,10.71
2019-03-28T07:15:20.553Z,10.74
2019-03-28T07:16:21.082Z,10.72
2019-03-28T07:17:19.803Z,10.74
2019-03-28T07:18:20.077Z,10.69
2019-03-28T07:19:19.845Z,10.72
2019-03-28T07:20:20.119Z,10.84
2019-03-28T07:21:20.747Z,10.71
2019-03-28T07:22:20.154Z,10.71
2019-03-28T07:23:19.648Z,10.79
2019-03-28T07:24:19.930Z,10.72
2019-03-28T07:25:20.222Z,10.81
2019-03-28T07:26:19.706Z,10.84
2019-03-28T07:27:19.985Z,10.79
2019-03-28T07:28:19.747Z,10.79
2019-03-28T07:29:20.029Z,10.82
2019-03-28T07:30:20.045Z,10.84
2019-03-28T07:31:20.060Z,10.82
2019-03-28T07:32:20.342Z,10.89
2019-03-28T07:33:20.370Z,10.82
2019-03-28T07:34:20.158Z,10.92
2019-03-28T07:35:19.879Z,10.84
2019-03-28T07:36:20.161Z,10.89
2019-03-28T07:37:20.188Z,10.87
2019-03-28T07:38:20.207Z,10.76
2019-03-28T07:39:23.910Z,10.81
2019-03-28T07:40:20.240Z,10.99
2019-03-28T07:41:21.109Z,10.89
2019-03-28T07:42:20.270Z,10.96
2019-03-28T07:43:20.299Z,10.94
2019-03-28T07:44:20.060Z,10.97
2019-03-28T07:45:20.331Z,10.94
2019-03-28T07:46:20.607Z,10.99
2019-03-28T07:47:20.367Z,10.99
2019-03-28T07:48:20.469Z,10.96
2019-03-28T07:49:20.209Z,11.05
2019-03-28T07:50:20.427Z,10.97
2019-03-28T07:51:20.439Z,11.02
2019-03-28T07:52:22.705Z,11.05
2019-03-28T07:53:22.119Z,11.05
2019-03-28T07:54:20.499Z,11.12
2019-03-28T07:55:21.086Z,11.08
2019-03-28T07:56:20.797Z,11.14
2019-03-28T07:57:20.553Z,11.11
2019-03-28T07:58:20.573Z,11.26
2019-03-28T07:59:20.592Z,11.18
2019-03-28T08:00:20.878Z,11.26
2019-03-28T08:01:22.784Z,11.26
2019-03-28T08:02:20.911Z,11.35
2019-03-28T08:03:20.672Z,11.32
2019-03-28T08:04:20.950Z,11.33
2019-03-28T08:05:20.706Z,11.3
2019-03-28T08:06:20.858Z,11.3
2019-03-28T08:07:20.748Z,11.36
2019-03-28T08:08:20.763Z,11.33
2019-03-28T08:09:22.069Z,11.35
2019-03-28T08:10:21.180Z,11.37
2019-03-28T08:11:21.286Z,11.33
2019-03-28T08:12:27.767Z,11.3
2019-03-28T08:13:21.126Z,11.3
2019-03-28T08:14:20.626Z,11.43
2019-03-28T08:15:20.641Z,11.37
2019-03-28T08:16:20.662Z,11.41
2019-03-28T08:17:20.680Z,11.4
2019-03-28T08:18:23.745Z,11.4
2019-03-28T08:19:20.980Z,11.41
2019-03-28T08:20:21.279Z,11.41
2019-03-28T08:21:21.280Z,11.48
2019-03-28T08:22:21.311Z,11.43
2019-03-28T08:23:21.057Z,11.41
2019-03-28T08:24:21.074Z,11.48
2019-03-28T08:25:20.833Z,11.44
2019-03-28T08:26:21.111Z,11.44
2019-03-28T08:27:20.876Z,11.47
2019-03-28T08:28:21.156Z,11.5
2019-03-28T08:29:21.183Z,11.48
2019-03-28T08:30:23.774Z,11.48
2019-03-28T08:31:21.225Z,11.52
2019-03-28T08:32:21.232Z,11.51
2019-03-28T08:33:21.250Z,11.57
2019-03-28T08:34:21.298Z,11.54
2019-03-28T08:35:21.564Z,11.57
2019-03-28T08:36:21.575Z,11.59
2019-03-28T08:37:21.068Z,11.65
2019-03-28T08:38:21.081Z,11.68
2019-03-28T08:39:21.364Z,11.69
2019-03-28T08:40:21.122Z,11.72
2019-03-28T08:41:21.904Z,11.8
2019-03-28T08:42:21.991Z,11.78
2019-03-28T08:43:21.444Z,11.77
2019-03-28T08:44:25.129Z,11.73
2019-03-28T08:45:21.483Z,11.83
2019-03-28T08:46:21.501Z,11.81
2019-03-28T08:47:21.258Z,11.78
2019-03-28T08:48:21.543Z,11.81
2019-03-28T08:49:21.568Z,11.81
2019-03-28T08:50:21.575Z,11.83
2019-03-28T08:51:21.598Z,11.84
2019-03-28T08:52:21.623Z,11.78
2019-03-28T08:53:21.637Z,11.88
2019-03-28T08:54:21.401Z,11.83
2019-03-28T08:55:21.938Z,11.81
2019-03-28T08:56:21.970Z,11.8
2019-03-28T08:57:21.750Z,11.8
2019-03-28T08:58:21.741Z,11.83
2019-03-28T08:59:21.493Z,11.84
2019-03-28T09:00:50.748Z,11.78
2019-03-28T09:01:22.063Z,11.87
2019-03-28T09:02:21.813Z,11.81
2019-03-28T09:03:21.835Z,11.84
2019-03-28T09:04:21.587Z,11.97
2019-03-28T09:05:22.134Z,11.91
2019-03-28T09:06:21.921Z,11.87
2019-03-28T09:07:22.288Z,11.9
2019-03-28T09:08:21.670Z,11.91
2019-03-28T09:09:23.702Z,11.91
2019-03-28T09:10:21.703Z,11.94
2019-03-28T09:11:24.015Z,11.94
2019-03-28T09:12:22.014Z,11.94
2019-03-28T09:13:22.026Z,12
2019-03-28T09:14:22.310Z,11.91
2019-03-28T09:15:22.345Z,11.99
2019-03-28T09:16:22.079Z,11.99
2019-03-28T09:17:23.779Z,12.03
2019-03-28T09:18:21.864Z,12.02
2019-03-28T09:19:22.408Z,12
2019-03-28T09:20:21.900Z,12.07
2019-03-28T09:21:21.930Z,12.13
2019-03-28T09:22:21.935Z,12.04
2019-03-28T09:23:22.481Z,12.07
2019-03-28T09:24:22.243Z,12.06
2019-03-28T09:25:22.257Z,12.02
2019-03-28T09:26:22.542Z,12.09
2019-03-28T09:27:22.303Z,12.1
2019-03-28T09:28:22.062Z,12.07
2019-03-28T09:29:22.335Z,12.1
2019-03-28T09:30:22.618Z,12.13
2019-03-28T09:31:24.964Z,12.06
2019-03-28T09:32:22.128Z,12.09
2019-03-28T09:33:22.412Z,12.1
2019-03-28T09:34:22.172Z,12.03
2019-03-28T09:35:22.470Z,12.07
2019-03-28T09:36:22.537Z,12.07
2019-03-28T09:37:22.489Z,12.13
2019-03-28T09:38:22.253Z,12.17
2019-03-28T09:39:24.815Z,12.07
2019-03-28T09:40:22.552Z,12.12
2019-03-28T09:41:22.570Z,12.09
2019-03-28T09:42:22.599Z,12.1
2019-03-28T09:43:22.616Z,12.02
2019-03-28T09:44:22.888Z,12.12
2019-03-28T09:45:22.661Z,12.07
2019-03-28T09:46:22.935Z,12.12
2019-03-28T09:47:22.954Z,12.09
2019-03-28T09:48:22.444Z,12.04
2019-03-28T09:49:22.739Z,12.17
2019-03-28T09:50:22.832Z,12.12
2019-03-28T09:51:22.517Z,12.1
2019-03-28T09:52:22.789Z,12.1
2019-03-28T09:53:23.064Z,12.13
2019-03-28T09:54:22.822Z,12.17
2019-03-28T09:55:23.429Z,12.24
2019-03-28T09:56:22.860Z,12.21
2019-03-28T09:57:22.892Z,12.24
2019-03-28T09:58:22.982Z,12.28
2019-03-28T09:59:22.932Z,12.25
2019-03-28T10:00:22.690Z,12.24
2019-03-28T10:01:22.695Z,12.27
2019-03-28T10:02:22.982Z,12.28
2019-03-28T10:03:23.264Z,12.31
2019-03-28T10:04:23.021Z,12.28
2019-03-28T10:05:22.774Z,12.27
2019-03-28T10:06:23.056Z,12.37
2019-03-28T10:07:22.815Z,12.29
2019-03-28T10:08:22.836Z,12.28
2019-03-28T10:09:23.121Z,12.35
2019-03-28T10:10:23.140Z,12.27
2019-03-28T10:11:23.161Z,12.28
2019-03-28T10:12:23.445Z,12.32
2019-03-28T10:13:22.932Z,12.22
2019-03-28T10:14:23.217Z,12.32
2019-03-28T10:15:23.241Z,12.21
2019-03-28T10:16:23.256Z,12.27
2019-03-28T10:17:23.286Z,12.24
2019-03-28T10:18:23.293Z,12.25
2019-03-28T10:19:23.047Z,12.27
2019-03-28T10:20:23.077Z,12.25
2019-03-28T10:21:23.351Z,12.24
2019-03-28T10:22:24.855Z,12.18
2019-03-28T10:23:23.395Z,12.13
2019-03-28T10:24:23.413Z,12.13
2019-03-28T10:25:23.446Z,12.04
2019-03-28T10:26:23.190Z,12.2
2019-03-28T10:27:23.739Z,12.07
2019-03-28T10:28:23.499Z,12.06
2019-03-28T10:29:23.249Z,12.07
2019-03-28T10:30:23.847Z,12.09
2019-03-28T10:31:23.815Z,12.1
2019-03-28T10:32:23.312Z,12.04
2019-03-28T10:33:24.531Z,12.13
2019-03-28T10:34:23.617Z,12.04
2019-03-28T10:35:23.640Z,12.04
2019-03-28T10:36:23.394Z,12.06
2019-03-28T10:37:23.676Z,12.1
2019-03-28T10:38:23.688Z,12.04
2019-03-28T10:39:23.994Z,12.1
2019-03-28T10:40:23.469Z,12.12
2019-03-28T10:41:25.813Z,12.12
2019-03-28T10:42:23.766Z,12.07
2019-03-28T10:43:23.538Z,12.09
2019-03-28T10:44:23.547Z,12.09
2019-03-28T10:45:24.098Z,12.07
2019-03-28T10:46:24.138Z,12.13
2019-03-28T10:47:23.869Z,12.04
2019-03-28T10:48:25.774Z,12.18
2019-03-28T10:49:23.646Z,12.18
2019-03-28T10:50:24.198Z,12.13
2019-03-28T10:51:24.008Z,12.21
2019-03-28T10:52:24.048Z,12.21
2019-03-28T10:53:23.987Z,12.24
2019-03-28T10:54:28.025Z,12.36
2019-03-28T10:55:23.776Z,12.21
2019-03-28T10:56:27.285Z,12.29
2019-03-28T10:57:35.096Z,12.37
2019-03-28T10:58:24.700Z,12.32
2019-03-28T10:59:28.220Z,12.35
2019-03-28T11:00:28.623Z,12.36
2019-03-28T11:01:52.972Z,12.37
2019-03-28T11:02:24.165Z,12.37
2019-03-28T11:03:24.185Z,12.46
2019-03-28T11:04:25.101Z,12.46
2019-03-28T11:05:23.963Z,12.46
2019-03-28T11:06:24.510Z,12.55
2019-03-28T11:07:24.650Z,12.53
2019-03-28T11:08:24.295Z,12.55
2019-03-28T11:09:24.308Z,12.55
2019-03-28T11:10:24.336Z,12.57
2019-03-28T11:11:25.173Z,12.61
2019-03-28T11:12:24.367Z,12.61
2019-03-28T11:13:24.388Z,12.58
2019-03-28T11:14:24.158Z,12.57
2019-03-28T11:15:24.690Z,12.55
2019-03-28T11:16:24.475Z,12.61
2019-03-28T11:17:24.473Z,12.7
2019-03-28T11:18:24.489Z,12.62
2019-03-28T11:19:24.771Z,12.7
2019-03-28T11:20:24.264Z,12.72
2019-03-28T11:21:24.308Z,12.75
2019-03-28T11:22:24.305Z,12.68
2019-03-28T11:23:24.589Z,12.7
2019-03-28T11:24:24.872Z,12.76
2019-03-28T11:25:24.894Z,12.68
2019-03-28T11:26:24.909Z,12.72
2019-03-28T11:27:24.434Z,12.87
2019-03-28T11:28:28.108Z,12.83
2019-03-28T11:29:24.757Z,12.82
2019-03-28T11:30:25.652Z,12.78
2019-03-28T11:31:25.022Z,12.79
2019-03-28T11:32:24.605Z,12.78
2019-03-28T11:33:24.652Z,12.8
2019-03-28T11:34:25.085Z,12.76
2019-03-28T11:35:25.193Z,12.79
2019-03-28T11:36:25.199Z,12.8
2019-03-28T11:37:30.950Z,12.78
2019-03-28T11:38:24.972Z,12.78
2019-03-28T11:39:25.737Z,12.79
2019-03-28T11:40:27.065Z,12.76
2019-03-28T11:41:24.770Z,12.79
2019-03-28T11:42:25.106Z,12.68
2019-03-28T11:43:25.336Z,12.65
2019-03-28T11:44:25.021Z,12.67
2019-03-28T11:45:26.982Z,12.7
2019-03-28T11:46:24.795Z,12.7
2019-03-28T11:47:26.935Z,12.65
2019-03-28T11:48:25.102Z,12.72
2019-03-28T11:49:25.385Z,12.7
2019-03-28T11:50:25.148Z,12.65
2019-03-28T11:51:25.162Z,12.72
2019-03-28T11:52:25.551Z,12.73
2019-03-28T11:53:25.213Z,12.62
2019-03-28T11:54:25.221Z,12.75
2019-03-28T11:55:25.242Z,12.62
2019-03-28T11:56:25.262Z,12.68
2019-03-28T11:57:25.281Z,12.72
2019-03-28T11:58:25.044Z,12.75
2019-03-28T11:59:25.584Z,12.62
2019-03-28T12:00:25.344Z,12.67
2019-03-28T12:01:25.363Z,12.64
2019-03-28T12:02:27.781Z,12.54
2019-03-28T12:03:25.411Z,12.6
2019-03-28T12:04:25.163Z,12.6
2019-03-28T12:05:25.189Z,12.54
2019-03-28T12:06:25.467Z,12.58
2019-03-28T12:07:25.747Z,12.54
2019-03-28T12:08:25.771Z,12.61
2019-03-28T12:09:25.789Z,12.6
2019-03-28T12:10:25.816Z,12.57
2019-03-28T12:11:25.566Z,12.61
2019-03-28T12:12:25.848Z,12.57
2019-03-28T12:13:25.345Z,12.62
2019-03-28T12:14:25.366Z,12.6
2019-03-28T12:15:25.651Z,12.55
2019-03-28T12:16:25.670Z,12.6
2019-03-28T12:17:25.438Z,12.6
2019-03-28T12:18:27.646Z,12.57
2019-03-28T12:19:25.558Z,12.6
2019-03-28T12:20:25.485Z,12.55
2019-03-28T12:21:25.775Z,12.58
2019-03-28T12:22:25.792Z,12.61
2019-03-28T12:23:26.482Z,12.62
2019-03-28T12:24:26.089Z,12.64
2019-03-28T12:25:25.852Z,12.62
2019-03-28T12:26:25.898Z,12.6
2019-03-28T12:27:25.893Z,12.62
2019-03-28T12:28:25.650Z,12.61
2019-03-28T12:29:26.500Z,12.57
2019-03-28T12:30:25.718Z,12.57
2019-03-28T12:31:25.980Z,12.64
2019-03-28T12:32:25.990Z,12.72
2019-03-28T12:33:25.751Z,12.67
2019-03-28T12:34:26.034Z,12.62
2019-03-28T12:35:26.072Z,12.78
2019-03-28T12:36:26.072Z,12.64
2019-03-28T12:37:26.088Z,12.68
2019-03-28T12:38:26.136Z,12.75
2019-03-28T12:39:25.870Z,12.67
2019-03-28T12:40:26.418Z,12.67
2019-03-28T12:41:26.177Z,12.73
2019-03-28T12:42:25.930Z,12.68
2019-03-28T12:43:26.485Z,12.68
2019-03-28T12:44:25.974Z,12.65
2019-03-28T12:45:26.741Z,12.65
2019-03-28T12:46:28.269Z,12.79
2019-03-28T12:47:26.296Z,12.79
2019-03-28T12:48:26.055Z,12.75
2019-03-28T12:49:26.341Z,12.78
2019-03-28T12:50:26.695Z,12.79
2019-03-28T12:51:26.946Z,12.7
2019-03-28T12:52:29.498Z,12.79
2019-03-28T12:53:26.422Z,12.72
2019-03-28T12:54:26.185Z,12.79
2019-03-28T12:55:26.722Z,12.82